createdAt,value
2019-02-04T00:00:14.892Z,51.10
2019-02-04T00:03:22.706Z,51.00
2019-02-04T00:06:28.330Z,51.20
2019-02-04T00:09:33.974Z,51.10
2019-02-04T00:12:39.662Z,51.10
2019-02-04T00:15:45.315Z,51.10
2019-02-04T00:18:50.965Z,51.00
2019-02-04T00:21:56.593Z,51.10
2019-02-04T00:25:02.249Z,51.00
2019-02-04T00:28:07.893Z,51.00
2019-02-04T00:31:13.577Z,51.00
2019-02-04T00:34:19.230Z,51.00
2019-02-04T00:37:25.812Z,51.00
2019-02-04T00:40:31.634Z,51.00
2019-02-04T00:43:37.310Z,51.00
2019-02-04T00:46:51.935Z,50.90
2019-02-04T00:49:50.229Z,50.80
2019-02-04T00:52:57.655Z,43.40
2019-02-04T00:56:03.714Z,45.70
2019-02-04T00:59:09.365Z,44.60
2019-02-04T01:02:14.985Z,44.40
2019-02-04T01:05:21.181Z,44.10
2019-02-04T01:08:26.707Z,43.80
2019-02-04T01:11:32.359Z,43.40
2019-02-04T01:14:38.038Z,42.90
2019-02-04T01:17:43.694Z,42.80
2019-02-04T01:20:49.431Z,42.90
2019-02-04T01:23:55.069Z,42.70
2019-02-04T01:27:00.754Z,42.80
2019-02-04T01:30:06.913Z,42.50
2019-02-04T01:33:12.566Z,42.40
2019-02-04T01:36:18.192Z,42.30
2019-02-04T01:39:23.882Z,42.00
2019-02-04T01:42:29.631Z,41.90
2019-02-04T01:45:35.181Z,42.00
2019-02-04T01:48:42.108Z,41.80
2019-02-04T01:51:47.709Z,42.10
2019-02-04T01:54:53.367Z,42.40
2019-02-04T01:57:59.018Z,41.60
2019-02-04T02:01:04.746Z,41.70
2019-02-04T02:04:10.406Z,41.50
2019-02-04T02:07:16.081Z,41.70
2019-02-04T02:10:23.134Z,41.60
2019-02-04T02:13:28.822Z,41.50
2019-02-04T02:16:36.146Z,42.10
2019-02-04T02:19:41.737Z,41.20
2019-02-04T02:22:47.521Z,41.20
2019-02-04T02:25:53.178Z,41.30
2019-02-04T02:28:58.962Z,41.20
2019-02-04T02:32:05.910Z,41.20
2019-02-04T02:35:11.582Z,41.00
2019-02-04T02:38:17.214Z,41.00
2019-02-04T02:41:22.938Z,40.90
2019-02-04T02:44:28.626Z,40.80
2019-02-04T02:47:38.395Z,40.80
2019-02-04T02:50:41.543Z,40.90
2019-02-04T02:53:47.485Z,40.50
2019-02-04T02:56:54.750Z,40.50
2019-02-04T03:00:00.401Z,40.50
2019-02-04T03:03:06.749Z,40.50
2019-02-04T03:06:12.429Z,40.50
2019-02-04T03:09:18.042Z,40.20
2019-02-04T03:12:23.837Z,40.30
2019-02-04T03:15:29.525Z,40.30
2019-02-04T03:18:35.250Z,40.10
2019-02-04T03:21:40.694Z,40.10
2019-02-04T03:24:46.409Z,39.90
2019-02-04T03:27:51.931Z,39.90
2019-02-04T03:30:59.363Z,39.90
2019-02-04T03:34:05.178Z,39.70
2019-02-04T03:37:14.397Z,39.60
2019-02-04T03:40:21.817Z,39.30
2019-02-04T03:43:27.579Z,39.20
2019-02-04T03:46:33.284Z,39.40
2019-02-04T03:49:38.911Z,39.30
2019-02-04T03:52:44.552Z,39.20
2019-02-04T03:55:50.222Z,39.20
2019-02-04T03:58:55.966Z,38.90
2019-02-04T04:02:01.858Z,39.00
2019-02-04T04:05:07.854Z,39.00
2019-02-04T04:08:13.546Z,38.90
2019-02-04T04:11:19.158Z,39.00
2019-02-04T04:14:24.733Z,39.10
2019-02-04T04:17:30.701Z,39.40
2019-02-04T04:20:36.350Z,39.20
2019-02-04T04:23:41.966Z,39.20
2019-02-04T04:26:47.618Z,39.10
2019-02-04T04:29:53.294Z,39.20
2019-02-04T04:32:58.950Z,38.90
2019-02-04T04:36:06.446Z,38.90
2019-02-04T04:39:12.070Z,39.00
2019-02-04T04:42:17.722Z,38.80
2019-02-04T04:45:24.300Z,38.80
2019-02-04T04:48:31.281Z,38.80
2019-02-04T04:51:36.962Z,39.10
2019-02-04T04:54:42.716Z,38.80
2019-02-04T04:57:48.474Z,38.80
2019-02-04T05:00:54.125Z,38.70
2019-02-04T05:03:59.750Z,38.50
2019-02-04T05:07:05.429Z,38.70
2019-02-04T05:10:13.408Z,38.60
2019-02-04T05:13:19.094Z,38.40
2019-02-04T05:16:24.846Z,38.40
2019-02-04T05:19:32.178Z,38.60
2019-02-04T05:22:39.530Z,38.70
2019-02-04T05:25:45.182Z,39.00
2019-02-04T05:28:52.175Z,39.00
2019-02-04T05:31:57.923Z,39.10
2019-02-04T05:35:03.691Z,39.00
2019-02-04T05:38:09.331Z,39.00
2019-02-04T05:41:14.978Z,39.20
2019-02-04T05:44:20.705Z,39.10
2019-02-04T05:47:26.389Z,39.80
2019-02-04T05:50:32.069Z,39.20
2019-02-04T05:53:37.770Z,39.10
2019-02-04T05:56:43.527Z,39.00
2019-02-04T05:59:49.521Z,39.10
2019-02-04T06:02:55.294Z,38.90
2019-02-04T06:06:03.858Z,38.80
2019-02-04T06:09:09.628Z,38.70
2019-02-04T06:12:15.406Z,38.60
2019-02-04T06:15:21.072Z,38.60
2019-02-04T06:18:26.709Z,38.50
2019-02-04T06:21:32.523Z,38.50
2019-02-04T06:24:38.522Z,38.40
2019-02-04T06:27:44.235Z,38.40
2019-02-04T06:30:49.898Z,38.20
2019-02-04T06:33:55.597Z,38.20
2019-02-04T06:37:01.235Z,38.00
2019-02-04T06:40:07.690Z,37.90
2019-02-04T06:43:13.457Z,37.90
2019-02-04T06:46:19.151Z,38.00
2019-02-04T06:49:24.766Z,38.00
2019-02-04T06:52:30.662Z,38.10
2019-02-04T06:55:37.536Z,37.90
2019-02-04T06:58:43.338Z,37.80
2019-02-04T07:01:49.017Z,37.90
2019-02-04T07:04:54.976Z,37.80
2019-02-04T07:08:02.301Z,38.00
2019-02-04T07:11:08.162Z,38.40
2019-02-04T07:14:13.882Z,38.50
2019-02-04T07:17:19.678Z,38.20
2019-02-04T07:20:26.210Z,37.90
2019-02-04T07:23:32.074Z,37.90
2019-02-04T07:26:38.014Z,37.80
2019-02-04T07:29:43.690Z,37.70
2019-02-04T07:32:49.539Z,37.70
2019-02-04T07:35:55.181Z,37.70
2019-02-04T07:39:00.973Z,37.50
2019-02-04T07:42:06.704Z,37.30
2019-02-04T07:45:12.559Z,37.30
2019-02-04T07:48:18.190Z,37.30
2019-02-04T07:51:23.861Z,37.20
2019-02-04T07:54:29.531Z,37.20
2019-02-04T07:57:35.579Z,37.30
2019-02-04T08:00:41.340Z,37.20
2019-02-04T08:03:46.986Z,37.10
2019-02-04T08:06:52.710Z,37.10
2019-02-04T08:09:58.393Z,37.30
2019-02-04T08:13:09.094Z,36.60
2019-02-04T08:16:14.898Z,35.90
2019-02-04T08:19:20.994Z,36.60
2019-02-04T08:22:26.617Z,37.20
2019-02-04T08:25:32.397Z,38.50
2019-02-04T08:28:38.046Z,38.90
2019-02-04T08:31:43.705Z,38.90
2019-02-04T08:34:51.506Z,38.50
2019-02-04T08:37:57.162Z,38.30
2019-02-04T08:41:02.711Z,38.00
2019-02-04T08:44:08.467Z,37.90
2019-02-04T08:47:22.667Z,37.90
2019-02-04T08:50:21.581Z,37.70
2019-02-04T08:53:27.364Z,37.60
2019-02-04T08:56:33.028Z,37.70
2019-02-04T08:59:40.110Z,37.50
2019-02-04T09:02:45.948Z,37.60
2019-02-04T09:05:51.736Z,37.40
2019-02-04T09:08:57.346Z,37.50
2019-02-04T09:12:04.702Z,37.80
2019-02-04T09:15:12.738Z,37.80
2019-02-04T09:18:18.395Z,37.60
2019-02-04T09:21:24.181Z,37.80
2019-02-04T09:24:29.906Z,37.50
2019-02-04T09:27:35.589Z,37.70
2019-02-04T09:30:42.528Z,37.80
2019-02-04T09:33:49.864Z,37.60
2019-02-04T09:36:55.626Z,37.40
2019-02-04T09:40:01.454Z,37.50
2019-02-04T09:43:07.606Z,37.60
2019-02-04T09:46:13.295Z,37.60
2019-02-04T09:49:19.353Z,37.70
2019-02-04T09:52:25.010Z,37.50
2019-02-04T09:55:33.221Z,37.40
2019-02-04T09:58:38.870Z,37.20
2019-02-04T10:01:45.160Z,37.40
2019-02-04T10:04:50.894Z,37.20
2019-02-04T10:07:56.681Z,37.20
2019-02-04T10:11:02.298Z,37.30
2019-02-04T10:14:08.206Z,38.00
2019-02-04T10:17:13.889Z,42.50
2019-02-04T10:20:20.586Z,44.40
2019-02-04T10:23:26.338Z,44.60
2019-02-04T10:26:32.236Z,44.90
2019-02-04T10:29:42.435Z,45.70
2019-02-04T10:32:48.171Z,45.10
2019-02-04T10:35:53.779Z,44.80
2019-02-04T10:38:59.531Z,44.50
2019-02-04T10:42:06.673Z,44.00
2019-02-04T10:45:13.446Z,43.60
2019-02-04T10:48:19.596Z,43.10
2019-02-04T10:51:25.461Z,42.60
2019-02-04T10:54:31.373Z,42.00
2019-02-04T10:57:40.553Z,40.90
2019-02-04T11:00:44.952Z,40.70
2019-02-04T11:03:50.638Z,42.20
2019-02-04T11:07:15.503Z,41.20
2019-02-04T11:10:24.918Z,42.20
2019-02-04T11:13:51.097Z,42.20
2019-02-04T11:16:56.898Z,42.30
2019-02-04T11:20:02.579Z,42.30
2019-02-04T11:23:09.257Z,42.30
2019-02-04T11:26:15.149Z,42.50
2019-02-04T11:29:20.734Z,42.50
2019-02-04T11:32:26.381Z,42.50
2019-02-04T11:35:32.261Z,42.00
2019-02-04T11:38:38.146Z,41.30
2019-02-04T11:41:43.788Z,40.20
2019-02-04T11:44:49.464Z,40.50
2019-02-04T11:47:55.375Z,41.50
2019-02-04T11:51:09.306Z,41.50
2019-02-04T11:54:08.306Z,42.00
2019-02-04T11:57:13.994Z,42.40
2019-02-04T12:00:22.062Z,43.60
2019-02-04T12:03:27.789Z,44.40
2019-02-04T12:06:34.593Z,44.00
2019-02-04T12:09:40.203Z,44.00
2019-02-04T12:12:45.851Z,45.10
2019-02-04T12:15:51.621Z,44.70
2019-02-04T12:18:57.369Z,44.60
2019-02-04T12:22:03.012Z,45.00
2019-02-04T12:25:10.741Z,45.00
2019-02-04T12:28:16.779Z,44.80
2019-02-04T12:31:22.592Z,44.60
2019-02-04T12:34:28.222Z,44.60
2019-02-04T12:37:34.606Z,44.50
2019-02-04T12:40:40.185Z,44.30
2019-02-04T12:43:45.978Z,44.20
2019-02-04T12:46:51.723Z,44.00
2019-02-04T12:49:58.090Z,44.00
2019-02-04T12:53:03.741Z,43.60
2019-02-04T12:56:09.603Z,43.40
2019-02-04T12:59:15.217Z,43.30
2019-02-04T13:02:20.974Z,43.30
2019-02-04T13:05:33.581Z,43.20
2019-02-04T13:08:39.245Z,43.10
2019-02-04T13:11:44.897Z,43.10
2019-02-04T13:14:50.813Z,42.90
2019-02-04T13:17:58.113Z,43.00
2019-02-04T13:21:03.834Z,42.90
2019-02-04T13:24:09.454Z,42.70
2019-02-04T13:27:15.205Z,42.60
2019-02-04T13:30:22.389Z,41.80
2019-02-04T13:33:28.078Z,42.40
2019-02-04T13:36:33.730Z,43.60
2019-02-04T13:39:39.802Z,44.00
2019-02-04T13:42:45.524Z,44.00
2019-02-04T13:45:51.188Z,43.80
2019-02-04T13:48:56.855Z,43.30
2019-02-04T13:52:03.547Z,43.00
2019-02-04T13:55:11.375Z,42.90
2019-02-04T13:58:16.848Z,42.90
2019-02-04T14:01:23.431Z,43.00
2019-02-04T14:04:29.198Z,43.20
2019-02-04T14:07:35.037Z,42.90
2019-02-04T14:10:45.988Z,42.60
2019-02-04T14:13:50.299Z,42.30
2019-02-04T14:16:55.908Z,42.20
2019-02-04T14:20:03.415Z,42.30
2019-02-04T14:23:09.575Z,42.00
2019-02-04T14:26:15.251Z,42.10
2019-02-04T14:29:20.892Z,41.90
2019-02-04T14:32:26.764Z,41.80
2019-02-04T14:35:32.307Z,41.30
2019-02-04T14:38:38.013Z,41.10
2019-02-04T14:41:43.712Z,41.80
2019-02-04T14:45:16.715Z,41.20
2019-02-04T14:48:42.229Z,41.40
2019-02-04T14:52:07.232Z,41.30
2019-02-04T14:56:03.095Z,40.60
2019-02-04T14:59:14.551Z,40.60
2019-02-04T15:02:54.959Z,40.40
2019-02-04T15:06:21.371Z,40.40
2019-02-04T15:10:17.647Z,41.30
2019-02-04T15:14:23.785Z,40.80
2019-02-04T15:18:01.180Z,40.80
2019-02-04T15:22:05.840Z,40.40
2019-02-04T15:26:11.340Z,40.40
2019-02-04T15:29:48.932Z,40.40
2019-02-04T15:33:38.492Z,40.30
2019-02-04T15:37:15.610Z,40.10
2019-02-04T15:40:26.784Z,39.60
2019-02-04T15:43:50.235Z,39.60
2019-02-04T15:47:15.016Z,39.50
2019-02-04T15:51:21.875Z,39.50
2019-02-04T15:54:28.750Z,39.40
2019-02-04T15:57:34.775Z,39.40
2019-02-04T16:00:42.137Z,39.20
2019-02-04T16:03:47.944Z,39.30
2019-02-04T16:06:53.616Z,39.30
2019-02-04T16:09:59.275Z,38.30
2019-02-04T16:13:04.985Z,34.70
2019-02-04T16:16:10.774Z,35.80
2019-02-04T16:19:16.412Z,36.60
2019-02-04T16:22:22.127Z,36.70
2019-02-04T16:25:29.163Z,36.90
2019-02-04T16:28:35.848Z,37.00
2019-02-04T16:31:41.464Z,37.20
2019-02-04T16:34:47.124Z,37.30
2019-02-04T16:37:52.906Z,37.70
2019-02-04T16:40:59.151Z,38.40
2019-02-04T16:44:06.552Z,38.70
2019-02-04T16:47:12.322Z,38.70
2019-02-04T16:50:25.961Z,38.50
2019-02-04T16:53:31.614Z,38.40
2019-02-04T16:56:37.245Z,38.10
2019-02-04T16:59:42.917Z,38.00
2019-02-04T17:02:48.865Z,37.80
2019-02-04T17:05:56.341Z,37.60
2019-02-04T17:09:02.384Z,37.70
2019-02-04T17:12:09.830Z,37.50
2019-02-04T17:15:15.863Z,37.40
2019-02-04T17:18:21.866Z,37.50
2019-02-04T17:21:27.497Z,39.50
2019-02-04T17:24:33.262Z,41.10
2019-02-04T17:27:38.778Z,41.60
2019-02-04T17:30:44.434Z,41.20
2019-02-04T17:33:50.110Z,40.60
2019-02-04T17:36:55.872Z,40.00
2019-02-04T17:40:01.519Z,39.50
2019-02-04T17:43:07.345Z,39.40
2019-02-04T17:46:13.970Z,38.90
2019-02-04T17:49:19.814Z,38.70
2019-02-04T17:52:25.505Z,38.40
2019-02-04T17:55:31.426Z,38.30
2019-02-04T17:58:37.087Z,38.10
2019-02-04T18:01:43.211Z,37.90
2019-02-04T18:04:49.008Z,37.90
2019-02-04T18:07:55.670Z,37.90
2019-02-04T18:11:01.477Z,37.80
2019-02-04T18:14:07.494Z,37.80
2019-02-04T18:17:13.358Z,37.80
2019-02-04T18:20:19.614Z,37.80
2019-02-04T18:23:25.391Z,37.70
2019-02-04T18:26:31.126Z,37.70
2019-02-04T18:29:36.990Z,37.80
2019-02-04T18:32:42.924Z,37.70
2019-02-04T18:35:48.589Z,37.50
2019-02-04T18:38:54.212Z,37.50
2019-02-04T18:42:00.339Z,37.40
2019-02-04T18:45:09.742Z,37.40
2019-02-04T18:48:17.894Z,37.40
2019-02-04T18:51:25.821Z,37.40
2019-02-04T18:54:31.619Z,37.40
2019-02-04T18:57:37.234Z,37.20
2019-02-04T19:00:43.028Z,37.30
2019-02-04T19:03:48.770Z,37.40
2019-02-04T19:06:54.530Z,37.40
2019-02-04T19:10:00.203Z,35.30
2019-02-04T19:13:06.012Z,35.20
2019-02-04T19:16:11.809Z,35.80
2019-02-04T19:19:17.450Z,36.50
2019-02-04T19:22:23.201Z,37.20
2019-02-04T19:25:31.901Z,37.30
2019-02-04T19:28:37.557Z,37.70
2019-02-04T19:31:43.237Z,37.80
2019-02-04T19:34:48.855Z,38.00
2019-02-04T19:37:54.509Z,38.00
2019-02-04T19:41:00.194Z,38.00
2019-02-04T19:53:26.900Z,38.00
2019-02-04T20:33:44.690Z,37.90
2019-02-04T20:41:48.075Z,38.60
2019-02-04T20:53:56.149Z,37.50
2019-02-04T21:24:08.891Z,36.20
2019-02-04T21:33:05.814Z,36.10
2019-02-04T21:41:18.941Z,35.70
2019-02-04T21:44:23.310Z,35.70
2019-02-04T21:47:44.061Z,35.60
2019-02-04T21:51:12.106Z,35.60
2019-02-04T21:54:18.829Z,35.50
2019-02-04T22:02:57.070Z,35.50
2019-02-04T22:06:22.804Z,35.60
2019-02-04T22:09:48.244Z,35.40
2019-02-04T22:13:16.406Z,35.40
2019-02-04T22:16:43.429Z,35.30
2019-02-04T22:20:18.810Z,35.30
2019-02-04T22:23:44.863Z,35.30
2019-02-04T22:26:50.486Z,35.10
2019-02-04T22:29:56.445Z,35.10
2019-02-04T22:33:02.414Z,35.00
2019-02-04T22:36:09.034Z,34.90
2019-02-04T22:39:15.761Z,34.90
2019-02-04T22:42:21.422Z,34.90
2019-02-04T22:45:27.391Z,35.40
2019-02-04T22:48:33.002Z,35.60
2019-02-04T22:51:39.429Z,36.10
2019-02-04T22:54:48.717Z,34.40
2019-02-04T22:57:54.394Z,34.00
2019-02-04T23:01:24.205Z,33.90
2019-02-04T23:04:29.962Z,33.30
2019-02-04T23:07:40.042Z,34.20
2019-02-04T23:10:46.186Z,33.50
2019-02-04T23:14:37.782Z,34.10
2019-02-04T23:21:18.257Z,34.80
2019-02-04T23:26:01.968Z,35.50
2019-02-04T23:29:27.782Z,35.80
2019-02-04T23:32:35.063Z,35.90
2019-02-04T23:35:41.133Z,36.00
2019-02-04T23:39:50.440Z,36.00
2019-02-04T23:43:15.798Z,35.70
2019-02-04T23:50:23.422Z,35.80
